Terminal Aerodrome Forecast
Issued by NWS Atlanta, GA

Home | Current Version | Previous Version | Text Only | Print | Product List | Glossary On
Versions: 1 2 3 4 5 6 7 8 9 10 11 12 13 14 15 16 17 18 19 20 21 22 23 24 25 26 27
000
FTUS42 KFFC 222046 AAA
TAFMCN
TAF AMD
KMCN 222046Z 2221/2318 10007KT 3SM -RA BR OVC006
     FM230300 10008KT 4SM -DZ BR OVC004
     FM230800 11008KT 1SM -DZ BR OVC002
     FM231500 13007KT 2SM -SHRA BR OVC008=

USA.gov is the U.S. government's official web portal to all federal, state and local government web resources and services.